sensor_id;sensor_type;location;lat;lon;timestamp;temperature;humidity
4578;DHT22;2301;47.354;8.528;2023-09-19T00:01:34;21.80;77.80
4578;DHT22;2301;47.354;8.528;2023-09-19T00:04:03;21.80;78.10
4578;DHT22;2301;47.354;8.528;2023-09-19T00:06:35;21.90;78.90
4578;DHT22;2301;47.354;8.528;2023-09-19T00:09:02;21.90;78.90
4578;DHT22;2301;47.354;8.528;2023-09-19T00:11:29;21.90;78.70
4578;DHT22;2301;47.354;8.528;2023-09-19T00:13:57;21.80;78.30
4578;DHT22;2301;47.354;8.528;2023-09-19T00:16:25;21.80;77.50
4578;DHT22;2301;47.354;8.528;2023-09-19T00:18:52;21.80;78.00
4578;DHT22;2301;47.354;8.528;2023-09-19T00:21:21;21.80;78.60
4578;DHT22;2301;47.354;8.528;2023-09-19T00:23:48;21.70;79.20
4578;DHT22;2301;47.354;8.528;2023-09-19T00:26:17;21.80;80.20
4578;DHT22;2301;47.354;8.528;2023-09-19T00:28:44;21.80;79.00
4578;DHT22;2301;47.354;8.528;2023-09-19T00:31:11;21.70;79.10
4578;DHT22;2301;47.354;8.528;2023-09-19T00:33:38;21.70;78.90
4578;DHT22;2301;47.354;8.528;2023-09-19T00:36:05;21.70;78.90
4578;DHT22;2301;47.354;8.528;2023-09-19T00:38:34;21.70;79.50
4578;DHT22;2301;47.354;8.528;2023-09-19T00:41:01;21.80;79.50
4578;DHT22;2301;47.354;8.528;2023-09-19T00:43:28;21.80;79.20
4578;DHT22;2301;47.354;8.528;2023-09-19T00:46:00;21.70;78.70
4578;DHT22;2301;47.354;8.528;2023-09-19T00:48:29;21.70;78.70
4578;DHT22;2301;47.354;8.528;2023-09-19T00:50:57;21.70;78.70
4578;DHT22;2301;47.354;8.528;2023-09-19T00:53:26;21.70;79.30
4578;DHT22;2301;47.354;8.528;2023-09-19T00:55:54;21.70;79.50
4578;DHT22;2301;47.354;8.528;2023-09-19T00:58:22;21.70;79.20
4578;DHT22;2301;47.354;8.528;2023-09-19T01:00:49;21.70;79.20
4578;DHT22;2301;47.354;8.528;2023-09-19T01:03:17;21.70;78.90
4578;DHT22;2301;47.354;8.528;2023-09-19T01:05:45;21.70;79.20
4578;DHT22;2301;47.354;8.528;2023-09-19T01:08:12;21.70;78.60
4578;DHT22;2301;47.354;8.528;2023-09-19T01:10:43;21.70;78.70
4578;DHT22;2301;47.354;8.528;2023-09-19T01:13:22;21.70;77.70
4578;DHT22;2301;47.354;8.528;2023-09-19T01:15:54;21.70;79.30
4578;DHT22;2301;47.354;8.528;2023-09-19T01:18:33;21.70;79.30
4578;DHT22;2301;47.354;8.528;2023-09-19T01:21:08;21.70;79.30
4578;DHT22;2301;47.354;8.528;2023-09-19T01:23:59;21.70;79.40
4578;DHT22;2301;47.354;8.528;2023-09-19T01:26:44;21.70;78.90
4578;DHT22;2301;47.354;8.528;2023-09-19T01:29:30;21.70;78.90
4578;DHT22;2301;47.354;8.528;2023-09-19T01:32:04;21.70;79.00
4578;DHT22;2301;47.354;8.528;2023-09-19T01:34:44;21.70;78.70
4578;DHT22;2301;47.354;8.528;2023-09-19T01:37:12;21.70;78.90
4578;DHT22;2301;47.354;8.528;2023-09-19T01:39:39;21.70;78.60
4578;DHT22;2301;47.354;8.528;2023-09-19T01:42:13;21.70;78.10
4578;DHT22;2301;47.354;8.528;2023-09-19T01:44:51;21.70;78.40
4578;DHT22;2301;47.354;8.528;2023-09-19T01:47:28;21.70;77.80
4578;DHT22;2301;47.354;8.528;2023-09-19T01:50:04;21.70;77.90
4578;DHT22;2301;47.354;8.528;2023-09-19T01:52:38;21.70;78.10
4578;DHT22;2301;47.354;8.528;2023-09-19T01:55:10;21.70;78.20
4578;DHT22;2301;47.354;8.528;2023-09-19T01:57:45;21.70;78.50
4578;DHT22;2301;47.354;8.528;2023-09-19T02:00:17;21.70;78.60
4578;DHT22;2301;47.354;8.528;2023-09-19T02:02:47;21.70;77.90
4578;DHT22;2301;47.354;8.528;2023-09-19T02:05:22;21.70;78.20
4578;DHT22;2301;47.354;8.528;2023-09-19T02:07:50;21.70;78.00
4578;DHT22;2301;47.354;8.528;2023-09-19T02:10:17;21.70;78.10
4578;DHT22;2301;47.354;8.528;2023-09-19T02:12:44;21.70;78.30
4578;DHT22;2301;47.354;8.528;2023-09-19T02:15:12;21.70;78.50
4578;DHT22;2301;47.354;8.528;2023-09-19T02:17:41;21.70;78.20
4578;DHT22;2301;47.354;8.528;2023-09-19T02:20:11;21.70;78.60
4578;DHT22;2301;47.354;8.528;2023-09-19T02:22:43;21.70;77.70
4578;DHT22;2301;47.354;8.528;2023-09-19T02:25:10;21.70;77.80
4578;DHT22;2301;47.354;8.528;2023-09-19T02:27:39;21.70;78.10
4578;DHT22;2301;47.354;8.528;2023-09-19T02:30:07;21.70;77.60
4578;DHT22;2301;47.354;8.528;2023-09-19T02:32:34;21.70;77.50
4578;DHT22;2301;47.354;8.528;2023-09-19T02:35:06;21.70;78.00
4578;DHT22;2301;47.354;8.528;2023-09-19T02:37:34;21.70;77.50
4578;DHT22;2301;47.354;8.528;2023-09-19T02:40:01;21.70;77.40
4578;DHT22;2301;47.354;8.528;2023-09-19T02:42:44;21.70;77.20
4578;DHT22;2301;47.354;8.528;2023-09-19T02:45:15;21.60;77.50
4578;DHT22;2301;47.354;8.528;2023-09-19T02:47:44;21.60;77.90
4578;DHT22;2301;47.354;8.528;2023-09-19T02:50:11;21.60;77.40
4578;DHT22;2301;47.354;8.528;2023-09-19T02:52:43;21.60;77.60
4578;DHT22;2301;47.354;8.528;2023-09-19T02:55:10;21.60;77.60
4578;DHT22;2301;47.354;8.528;2023-09-19T02:57:38;21.60;77.20
4578;DHT22;2301;47.354;8.528;2023-09-19T03:00:09;21.60;77.20
4578;DHT22;2301;47.354;8.528;2023-09-19T03:02:38;21.60;77.10
4578;DHT22;2301;47.354;8.528;2023-09-19T03:05:07;21.50;75.60
4578;DHT22;2301;47.354;8.528;2023-09-19T03:07:37;21.50;76.70
4578;DHT22;2301;47.354;8.528;2023-09-19T03:10:07;21.50;76.90
4578;DHT22;2301;47.354;8.528;2023-09-19T03:12:34;21.50;76.80
4578;DHT22;2301;47.354;8.528;2023-09-19T03:15:02;21.50;76.60
4578;DHT22;2301;47.354;8.528;2023-09-19T03:17:30;21.50;77.20
4578;DHT22;2301;47.354;8.528;2023-09-19T03:19:58;21.50;77.00
4578;DHT22;2301;47.354;8.528;2023-09-19T03:22:26;21.50;76.30
4578;DHT22;2301;47.354;8.528;2023-09-19T03:24:53;21.50;76.50
4578;DHT22;2301;47.354;8.528;2023-09-19T03:27:22;21.50;75.90
4578;DHT22;2301;47.354;8.528;2023-09-19T03:29:49;21.50;75.50
4578;DHT22;2301;47.354;8.528;2023-09-19T03:32:16;21.60;75.70
4578;DHT22;2301;47.354;8.528;2023-09-19T03:34:43;21.50;74.40
4578;DHT22;2301;47.354;8.528;2023-09-19T03:37:10;21.50;76.70
4578;DHT22;2301;47.354;8.528;2023-09-19T03:39:37;21.50;76.60
4578;DHT22;2301;47.354;8.528;2023-09-19T03:42:04;21.50;76.70
4578;DHT22;2301;47.354;8.528;2023-09-19T03:44:33;21.60;76.80
4578;DHT22;2301;47.354;8.528;2023-09-19T03:47:00;21.60;76.70
4578;DHT22;2301;47.354;8.528;2023-09-19T03:49:30;21.60;75.70
4578;DHT22;2301;47.354;8.528;2023-09-19T03:51:57;21.60;75.50
4578;DHT22;2301;47.354;8.528;2023-09-19T03:54:24;21.60;76.00
4578;DHT22;2301;47.354;8.528;2023-09-19T03:56:51;21.60;75.90
4578;DHT22;2301;47.354;8.528;2023-09-19T03:59:18;21.60;76.20
4578;DHT22;2301;47.354;8.528;2023-09-19T04:01:47;21.60;75.90
4578;DHT22;2301;47.354;8.528;2023-09-19T04:04:15;21.60;75.50
4578;DHT22;2301;47.354;8.528;2023-09-19T04:06:44;21.50;73.90
4578;DHT22;2301;47.354;8.528;2023-09-19T04:09:11;21.50;75.70
4578;DHT22;2301;47.354;8.528;2023-09-19T04:11:38;21.50;74.20
4578;DHT22;2301;47.354;8.528;2023-09-19T04:14:05;21.50;76.00
4578;DHT22;2301;47.354;8.528;2023-09-19T04:16:33;21.50;76.20
4578;DHT22;2301;47.354;8.528;2023-09-19T04:19:01;21.50;76.30
4578;DHT22;2301;47.354;8.528;2023-09-19T04:21:29;21.60;76.10
4578;DHT22;2301;47.354;8.528;2023-09-19T04:23:56;21.50;74.90
4578;DHT22;2301;47.354;8.528;2023-09-19T04:26:23;21.50;75.30
4578;DHT22;2301;47.354;8.528;2023-09-19T04:28:51;21.50;75.00
4578;DHT22;2301;47.354;8.528;2023-09-19T04:31:18;21.50;75.90
4578;DHT22;2301;47.354;8.528;2023-09-19T04:33:47;21.50;75.90
4578;DHT22;2301;47.354;8.528;2023-09-19T04:36:17;21.50;75.80
4578;DHT22;2301;47.354;8.528;2023-09-19T04:38:44;21.50;75.80
4578;DHT22;2301;47.354;8.528;2023-09-19T04:41:11;21.50;76.90
4578;DHT22;2301;47.354;8.528;2023-09-19T04:43:38;21.50;76.30
4578;DHT22;2301;47.354;8.528;2023-09-19T04:46:05;21.50;76.70
4578;DHT22;2301;47.354;8.528;2023-09-19T04:48:33;21.50;76.90
4578;DHT22;2301;47.354;8.528;2023-09-19T04:51:02;21.50;76.30
4578;DHT22;2301;47.354;8.528;2023-09-19T04:53:33;21.50;76.60
4578;DHT22;2301;47.354;8.528;2023-09-19T04:56:02;21.40;76.00
4578;DHT22;2301;47.354;8.528;2023-09-19T04:58:29;21.50;75.60
4578;DHT22;2301;47.354;8.528;2023-09-19T05:00:56;21.50;76.00
4578;DHT22;2301;47.354;8.528;2023-09-19T05:03:24;21.50;76.50
4578;DHT22;2301;47.354;8.528;2023-09-19T05:05:51;21.50;76.30
4578;DHT22;2301;47.354;8.528;2023-09-19T05:08:18;21.50;76.50
4578;DHT22;2301;47.354;8.528;2023-09-19T05:10:46;21.50;76.30
4578;DHT22;2301;47.354;8.528;2023-09-19T05:13:14;21.60;76.30
4578;DHT22;2301;47.354;8.528;2023-09-19T05:15:41;21.60;76.30
4578;DHT22;2301;47.354;8.528;2023-09-19T05:18:08;21.60;76.60
4578;DHT22;2301;47.354;8.528;2023-09-19T05:20:36;21.60;76.60
4578;DHT22;2301;47.354;8.528;2023-09-19T05:23:05;21.60;76.50
4578;DHT22;2301;47.354;8.528;2023-09-19T05:25:38;21.40;77.00
4578;DHT22;2301;47.354;8.528;2023-09-19T05:28:08;21.40;77.60
4578;DHT22;2301;47.354;8.528;2023-09-19T05:30:37;21.40;77.60
4578;DHT22;2301;47.354;8.528;2023-09-19T05:33:05;21.40;78.10
4578;DHT22;2301;47.354;8.528;2023-09-19T05:35:33;21.40;78.30
4578;DHT22;2301;47.354;8.528;2023-09-19T05:38:00;21.40;77.80
4578;DHT22;2301;47.354;8.528;2023-09-19T05:40:27;21.30;77.00
4578;DHT22;2301;47.354;8.528;2023-09-19T05:42:54;21.30;78.70
4578;DHT22;2301;47.354;8.528;2023-09-19T05:45:22;21.30;78.40
4578;DHT22;2301;47.354;8.528;2023-09-19T05:47:50;21.30;78.60
4578;DHT22;2301;47.354;8.528;2023-09-19T05:50:21;21.30;78.00
4578;DHT22;2301;47.354;8.528;2023-09-19T05:52:54;21.30;77.80
4578;DHT22;2301;47.354;8.528;2023-09-19T05:55:21;21.30;77.60
4578;DHT22;2301;47.354;8.528;2023-09-19T05:57:50;21.30;77.90
4578;DHT22;2301;47.354;8.528;2023-09-19T06:00:18;21.40;77.80
4578;DHT22;2301;47.354;8.528;2023-09-19T06:02:51;21.40;78.10
4578;DHT22;2301;47.354;8.528;2023-09-19T06:05:19;21.40;78.10
4578;DHT22;2301;47.354;8.528;2023-09-19T06:07:46;21.40;77.90
4578;DHT22;2301;47.354;8.528;2023-09-19T06:10:14;21.40;78.30
4578;DHT22;2301;47.354;8.528;2023-09-19T06:12:43;21.50;78.10
4578;DHT22;2301;47.354;8.528;2023-09-19T06:15:11;21.50;78.10
4578;DHT22;2301;47.354;8.528;2023-09-19T06:17:42;21.50;78.00
4578;DHT22;2301;47.354;8.528;2023-09-19T06:20:11;21.50;78.10
4578;DHT22;2301;47.354;8.528;2023-09-19T06:22:40;21.50;77.90
4578;DHT22;2301;47.354;8.528;2023-09-19T06:25:08;21.50;78.30
4578;DHT22;2301;47.354;8.528;2023-09-19T06:27:37;21.50;78.50
4578;DHT22;2301;47.354;8.528;2023-09-19T06:30:07;21.60;78.50
4578;DHT22;2301;47.354;8.528;2023-09-19T06:32:35;21.70;78.40
4578;DHT22;2301;47.354;8.528;2023-09-19T06:35:02;21.70;77.90
4578;DHT22;2301;47.354;8.528;2023-09-19T06:37:35;21.80;77.80
4578;DHT22;2301;47.354;8.528;2023-09-19T06:40:06;21.80;77.60
4578;DHT22;2301;47.354;8.528;2023-09-19T06:42:34;21.80;77.40
4578;DHT22;2301;47.354;8.528;2023-09-19T06:45:03;21.90;77.10
4578;DHT22;2301;47.354;8.528;2023-09-19T06:47:31;22.00;77.60
4578;DHT22;2301;47.354;8.528;2023-09-19T06:49:58;22.20;78.10
4578;DHT22;2301;47.354;8.528;2023-09-19T06:52:24;22.30;77.50
4578;DHT22;2301;47.354;8.528;2023-09-19T06:54:54;22.40;76.90
4578;DHT22;2301;47.354;8.528;2023-09-19T06:57:22;22.50;76.30
4578;DHT22;2301;47.354;8.528;2023-09-19T06:59:50;22.50;76.90
4578;DHT22;2301;47.354;8.528;2023-09-19T07:02:17;22.60;76.70
4578;DHT22;2301;47.354;8.528;2023-09-19T07:04:44;22.70;75.60
4578;DHT22;2301;47.354;8.528;2023-09-19T07:07:11;22.70;75.00
4578;DHT22;2301;47.354;8.528;2023-09-19T07:09:39;22.80;74.70
4578;DHT22;2301;47.354;8.528;2023-09-19T07:12:09;22.80;74.30
4578;DHT22;2301;47.354;8.528;2023-09-19T07:14:37;22.80;73.80
4578;DHT22;2301;47.354;8.528;2023-09-19T07:17:04;22.90;74.10
4578;DHT22;2301;47.354;8.528;2023-09-19T07:19:31;22.90;73.80
4578;DHT22;2301;47.354;8.528;2023-09-19T07:21:58;22.90;73.50
4578;DHT22;2301;47.354;8.528;2023-09-19T07:24:28;23.00;73.60
4578;DHT22;2301;47.354;8.528;2023-09-19T07:26:55;23.00;73.40
4578;DHT22;2301;47.354;8.528;2023-09-19T07:29:23;23.10;73.30
4578;DHT22;2301;47.354;8.528;2023-09-19T07:31:51;23.10;72.90
4578;DHT22;2301;47.354;8.528;2023-09-19T07:34:18;23.00;72.60
4578;DHT22;2301;47.354;8.528;2023-09-19T07:36:48;23.00;73.00
4578;DHT22;2301;47.354;8.528;2023-09-19T07:39:19;23.00;72.60
4578;DHT22;2301;47.354;8.528;2023-09-19T07:41:49;23.00;73.50
4578;DHT22;2301;47.354;8.528;2023-09-19T07:44:18;22.90;72.10
4578;DHT22;2301;47.354;8.528;2023-09-19T07:46:49;22.80;71.50
4578;DHT22;2301;47.354;8.528;2023-09-19T07:49:16;22.60;71.20
4578;DHT22;2301;47.354;8.528;2023-09-19T07:51:44;22.40;71.60
4578;DHT22;2301;47.354;8.528;2023-09-19T07:54:12;22.30;72.30
4578;DHT22;2301;47.354;8.528;2023-09-19T07:56:40;22.30;72.60
4578;DHT22;2301;47.354;8.528;2023-09-19T07:59:07;22.30;72.80
4578;DHT22;2301;47.354;8.528;2023-09-19T08:01:35;22.20;72.70
4578;DHT22;2301;47.354;8.528;2023-09-19T08:04:05;22.10;72.40
4578;DHT22;2301;47.354;8.528;2023-09-19T08:06:32;21.90;71.80
4578;DHT22;2301;47.354;8.528;2023-09-19T08:08:58;21.80;71.80
4578;DHT22;2301;47.354;8.528;2023-09-19T08:11:26;21.70;72.80
4578;DHT22;2301;47.354;8.528;2023-09-19T08:13:56;21.60;72.80
4578;DHT22;2301;47.354;8.528;2023-09-19T08:16:24;21.50;73.10
4578;DHT22;2301;47.354;8.528;2023-09-19T08:18:51;21.40;74.10
4578;DHT22;2301;47.354;8.528;2023-09-19T08:21:21;21.20;74.10
4578;DHT22;2301;47.354;8.528;2023-09-19T08:23:51;21.20;74.60
4578;DHT22;2301;47.354;8.528;2023-09-19T08:26:20;21.00;74.60
4578;DHT22;2301;47.354;8.528;2023-09-19T08:28:49;21.00;75.10
4578;DHT22;2301;47.354;8.528;2023-09-19T08:31:18;21.10;75.40
4578;DHT22;2301;47.354;8.528;2023-09-19T08:33:46;21.00;75.00
4578;DHT22;2301;47.354;8.528;2023-09-19T08:36:17;21.10;75.00
4578;DHT22;2301;47.354;8.528;2023-09-19T08:38:45;21.10;75.30
4578;DHT22;2301;47.354;8.528;2023-09-19T08:41:12;21.00;75.30
4578;DHT22;2301;47.354;8.528;2023-09-19T08:43:39;21.00;75.20
4578;DHT22;2301;47.354;8.528;2023-09-19T08:46:10;21.00;75.30
4578;DHT22;2301;47.354;8.528;2023-09-19T08:48:42;21.00;75.40
4578;DHT22;2301;47.354;8.528;2023-09-19T08:51:18;21.00;75.40
4578;DHT22;2301;47.354;8.528;2023-09-19T08:53:51;21.00;75.20
4578;DHT22;2301;47.354;8.528;2023-09-19T08:56:19;20.90;75.10
4578;DHT22;2301;47.354;8.528;2023-09-19T08:58:51;20.80;75.20
4578;DHT22;2301;47.354;8.528;2023-09-19T09:01:20;20.70;75.50
4578;DHT22;2301;47.354;8.528;2023-09-19T09:03:51;20.70;76.00
4578;DHT22;2301;47.354;8.528;2023-09-19T09:06:19;20.80;76.90
4578;DHT22;2301;47.354;8.528;2023-09-19T09:08:48;20.80;76.00
4578;DHT22;2301;47.354;8.528;2023-09-19T09:11:16;20.80;76.20
4578;DHT22;2301;47.354;8.528;2023-09-19T09:13:44;20.80;76.40
4578;DHT22;2301;47.354;8.528;2023-09-19T09:16:11;20.80;76.60
4578;DHT22;2301;47.354;8.528;2023-09-19T09:18:39;20.90;76.80
4578;DHT22;2301;47.354;8.528;2023-09-19T09:21:06;20.90;76.80
4578;DHT22;2301;47.354;8.528;2023-09-19T09:23:33;20.80;76.80
4578;DHT22;2301;47.354;8.528;2023-09-19T09:26:02;20.90;77.00
4578;DHT22;2301;47.354;8.528;2023-09-19T09:28:31;20.90;76.80
4578;DHT22;2301;47.354;8.528;2023-09-19T09:30:59;20.90;76.50
4578;DHT22;2301;47.354;8.528;2023-09-19T09:33:28;20.80;76.30
4578;DHT22;2301;47.354;8.528;2023-09-19T09:35:56;20.90;76.50
4578;DHT22;2301;47.354;8.528;2023-09-19T09:38:26;21.10;77.00
4578;DHT22;2301;47.354;8.528;2023-09-19T09:40:58;21.40;77.00
4578;DHT22;2301;47.354;8.528;2023-09-19T09:43:33;21.60;76.10
4578;DHT22;2301;47.354;8.528;2023-09-19T09:46:11;21.80;75.40
4578;DHT22;2301;47.354;8.528;2023-09-19T09:49:04;21.90;74.90
4578;DHT22;2301;47.354;8.528;2023-09-19T09:51:45;22.00;73.90
4578;DHT22;2301;47.354;8.528;2023-09-19T09:54:15;22.20;73.90
4578;DHT22;2301;47.354;8.528;2023-09-19T09:56:56;22.50;73.20
4578;DHT22;2301;47.354;8.528;2023-09-19T09:59:48;22.60;72.40
4578;DHT22;2301;47.354;8.528;2023-09-19T10:02:25;22.50;71.70
4578;DHT22;2301;47.354;8.528;2023-09-19T10:04:55;22.50;71.80
4578;DHT22;2301;47.354;8.528;2023-09-19T10:07:40;22.60;71.90
4578;DHT22;2301;47.354;8.528;2023-09-19T10:10:08;22.60;71.00
4578;DHT22;2301;47.354;8.528;2023-09-19T10:12:48;22.90;71.30
4578;DHT22;2301;47.354;8.528;2023-09-19T10:15:18;23.10;70.70
4578;DHT22;2301;47.354;8.528;2023-09-19T10:17:47;23.30;70.60
4578;DHT22;2301;47.354;8.528;2023-09-19T10:20:15;23.50;70.10
4578;DHT22;2301;47.354;8.528;2023-09-19T10:23:06;23.70;69.70
4578;DHT22;2301;47.354;8.528;2023-09-19T10:25:37;24.00;69.40
4578;DHT22;2301;47.354;8.528;2023-09-19T10:28:07;24.40;69.30
4578;DHT22;2301;47.354;8.528;2023-09-19T10:30:40;24.50;67.80
4578;DHT22;2301;47.354;8.528;2023-09-19T10:33:10;24.80;67.80
4578;DHT22;2301;47.354;8.528;2023-09-19T10:35:38;25.00;67.60
4578;DHT22;2301;47.354;8.528;2023-09-19T10:38:07;25.20;66.80
4578;DHT22;2301;47.354;8.528;2023-09-19T10:40:37;25.20;65.80
4578;DHT22;2301;47.354;8.528;2023-09-19T10:43:12;25.30;65.30
4578;DHT22;2301;47.354;8.528;2023-09-19T10:45:44;25.20;65.20
4578;DHT22;2301;47.354;8.528;2023-09-19T10:48:12;25.20;65.40
4578;DHT22;2301;47.354;8.528;2023-09-19T10:50:45;25.10;65.40
4578;DHT22;2301;47.354;8.528;2023-09-19T10:53:13;25.10;65.30
4578;DHT22;2301;47.354;8.528;2023-09-19T10:55:47;25.10;65.30
4578;DHT22;2301;47.354;8.528;2023-09-19T10:58:25;25.00;65.10
4578;DHT22;2301;47.354;8.528;2023-09-19T11:00:57;24.90;64.70
4578;DHT22;2301;47.354;8.528;2023-09-19T11:03:28;24.80;65.50
4578;DHT22;2301;47.354;8.528;2023-09-19T11:06:07;24.70;64.20
4578;DHT22;2301;47.354;8.528;2023-09-19T11:08:56;24.70;64.30
4578;DHT22;2301;47.354;8.528;2023-09-19T11:11:42;24.70;64.60
4578;DHT22;2301;47.354;8.528;2023-09-19T11:14:16;24.60;65.00
4578;DHT22;2301;47.354;8.528;2023-09-19T11:20:22;24.50;65.40
4578;DHT22;2301;47.354;8.528;2023-09-19T11:23:19;24.70;65.70
4578;DHT22;2301;47.354;8.528;2023-09-19T11:25:49;24.80;66.00
4578;DHT22;2301;47.354;8.528;2023-09-19T11:28:30;25.10;66.00
4578;DHT22;2301;47.354;8.528;2023-09-19T11:30:58;25.30;64.50
4578;DHT22;2301;47.354;8.528;2023-09-19T11:33:26;25.50;63.60
4578;DHT22;2301;47.354;8.528;2023-09-19T11:36:05;25.60;63.10
4578;DHT22;2301;47.354;8.528;2023-09-19T11:38:59;25.70;63.40
4578;DHT22;2301;47.354;8.528;2023-09-19T11:41:40;25.70;62.40
4578;DHT22;2301;47.354;8.528;2023-09-19T11:44:32;25.80;62.30
4578;DHT22;2301;47.354;8.528;2023-09-19T11:47:02;26.00;63.00
4578;DHT22;2301;47.354;8.528;2023-09-19T11:49:31;26.00;62.40
4578;DHT22;2301;47.354;8.528;2023-09-19T11:52:01;26.20;62.40
4578;DHT22;2301;47.354;8.528;2023-09-19T11:54:31;26.40;61.80
4578;DHT22;2301;47.354;8.528;2023-09-19T11:56:59;26.50;60.60
4578;DHT22;2301;47.354;8.528;2023-09-19T11:59:28;26.70;60.50
4578;DHT22;2301;47.354;8.528;2023-09-19T12:01:56;26.80;59.80
4578;DHT22;2301;47.354;8.528;2023-09-19T12:04:37;27.00;59.10
4578;DHT22;2301;47.354;8.528;2023-09-19T12:07:07;27.00;57.90
4578;DHT22;2301;47.354;8.528;2023-09-19T12:09:39;27.00;57.50
4578;DHT22;2301;47.354;8.528;2023-09-19T12:12:07;27.00;57.10
4578;DHT22;2301;47.354;8.528;2023-09-19T12:14:34;27.00;57.60
4578;DHT22;2301;47.354;8.528;2023-09-19T12:17:01;27.10;57.60
4578;DHT22;2301;47.354;8.528;2023-09-19T12:19:29;27.30;57.70
4578;DHT22;2301;47.354;8.528;2023-09-19T12:21:57;27.30;57.80
4578;DHT22;2301;47.354;8.528;2023-09-19T12:24:27;27.30;57.20
4578;DHT22;2301;47.354;8.528;2023-09-19T12:27:00;27.40;56.00
4578;DHT22;2301;47.354;8.528;2023-09-19T12:29:27;27.40;55.40
4578;DHT22;2301;47.354;8.528;2023-09-19T12:31:57;27.50;55.20
4578;DHT22;2301;47.354;8.528;2023-09-19T12:34:25;27.60;55.10
4578;DHT22;2301;47.354;8.528;2023-09-19T12:37:07;27.60;55.00
4578;DHT22;2301;47.354;8.528;2023-09-19T12:39:48;27.60;54.10
4578;DHT22;2301;47.354;8.528;2023-09-19T12:42:17;27.40;54.90
4578;DHT22;2301;47.354;8.528;2023-09-19T12:44:46;27.30;54.90
4578;DHT22;2301;47.354;8.528;2023-09-19T12:47:15;27.30;53.90
4578;DHT22;2301;47.354;8.528;2023-09-19T12:50:08;27.40;54.00
4578;DHT22;2301;47.354;8.528;2023-09-19T12:52:41;27.60;53.90
4578;DHT22;2301;47.354;8.528;2023-09-19T12:55:20;27.50;53.40
4578;DHT22;2301;47.354;8.528;2023-09-19T12:57:59;27.40;53.90
4578;DHT22;2301;47.354;8.528;2023-09-19T13:00:34;27.40;54.30
4578;DHT22;2301;47.354;8.528;2023-09-19T13:03:13;27.50;54.60
4578;DHT22;2301;47.354;8.528;2023-09-19T13:05:54;27.40;54.00
4578;DHT22;2301;47.354;8.528;2023-09-19T13:08:24;27.50;54.30
4578;DHT22;2301;47.354;8.528;2023-09-19T13:11:06;27.40;53.40
4578;DHT22;2301;47.354;8.528;2023-09-19T13:13:36;27.30;54.40
4578;DHT22;2301;47.354;8.528;2023-09-19T13:16:04;27.20;54.20
4578;DHT22;2301;47.354;8.528;2023-09-19T13:18:42;27.20;54.20
4578;DHT22;2301;47.354;8.528;2023-09-19T13:21:11;27.20;54.40
4578;DHT22;2301;47.354;8.528;2023-09-19T13:23:42;27.30;53.90
4578;DHT22;2301;47.354;8.528;2023-09-19T13:26:10;27.20;52.70
4578;DHT22;2301;47.354;8.528;2023-09-19T13:28:38;27.30;52.60
4578;DHT22;2301;47.354;8.528;2023-09-19T13:31:05;27.30;52.70
4578;DHT22;2301;47.354;8.528;2023-09-19T13:33:33;27.30;53.00
4578;DHT22;2301;47.354;8.528;2023-09-19T13:36:01;27.40;52.90
4578;DHT22;2301;47.354;8.528;2023-09-19T13:38:28;27.40;52.40
4578;DHT22;2301;47.354;8.528;2023-09-19T13:40:55;27.30;52.20
4578;DHT22;2301;47.354;8.528;2023-09-19T13:43:23;27.30;52.20
4578;DHT22;2301;47.354;8.528;2023-09-19T13:45:50;27.30;52.70
4578;DHT22;2301;47.354;8.528;2023-09-19T13:48:17;27.30;52.60
4578;DHT22;2301;47.354;8.528;2023-09-19T13:50:48;27.20;52.20
4578;DHT22;2301;47.354;8.528;2023-09-19T13:53:15;27.10;52.70
4578;DHT22;2301;47.354;8.528;2023-09-19T13:55:43;27.00;52.00
4578;DHT22;2301;47.354;8.528;2023-09-19T13:58:10;27.00;52.50
4578;DHT22;2301;47.354;8.528;2023-09-19T14:00:39;27.00;52.80
4578;DHT22;2301;47.354;8.528;2023-09-19T14:03:07;27.00;52.60
4578;DHT22;2301;47.354;8.528;2023-09-19T14:05:34;27.00;52.40
4578;DHT22;2301;47.354;8.528;2023-09-19T14:08:01;27.10;51.80
4578;DHT22;2301;47.354;8.528;2023-09-19T14:10:28;27.00;50.90
4578;DHT22;2301;47.354;8.528;2023-09-19T14:12:57;27.00;51.30
4578;DHT22;2301;47.354;8.528;2023-09-19T14:15:25;26.90;51.60
4578;DHT22;2301;47.354;8.528;2023-09-19T14:17:57;26.90;52.60
4578;DHT22;2301;47.354;8.528;2023-09-19T14:20:25;26.90;51.80
4578;DHT22;2301;47.354;8.528;2023-09-19T14:22:53;26.80;52.40
4578;DHT22;2301;47.354;8.528;2023-09-19T14:25:20;26.70;51.70
4578;DHT22;2301;47.354;8.528;2023-09-19T14:27:47;26.70;52.20
4578;DHT22;2301;47.354;8.528;2023-09-19T14:30:14;26.60;52.10
4578;DHT22;2301;47.354;8.528;2023-09-19T14:32:41;26.60;51.80
4578;DHT22;2301;47.354;8.528;2023-09-19T14:35:10;26.60;51.70
4578;DHT22;2301;47.354;8.528;2023-09-19T14:37:40;26.70;51.90
4578;DHT22;2301;47.354;8.528;2023-09-19T14:40:08;26.60;51.80
4578;DHT22;2301;47.354;8.528;2023-09-19T14:42:38;26.70;51.80
4578;DHT22;2301;47.354;8.528;2023-09-19T14:45:07;26.50;51.20
4578;DHT22;2301;47.354;8.528;2023-09-19T14:47:34;26.50;50.90
4578;DHT22;2301;47.354;8.528;2023-09-19T14:50:03;26.50;50.70
4578;DHT22;2301;47.354;8.528;2023-09-19T14:52:33;26.50;51.00
4578;DHT22;2301;47.354;8.528;2023-09-19T14:55:01;26.50;51.50
4578;DHT22;2301;47.354;8.528;2023-09-19T14:57:30;26.50;51.70
4578;DHT22;2301;47.354;8.528;2023-09-19T14:59:58;26.50;51.90
4578;DHT22;2301;47.354;8.528;2023-09-19T15:02:25;26.50;51.50
4578;DHT22;2301;47.354;8.528;2023-09-19T15:04:52;26.50;52.00
4578;DHT22;2301;47.354;8.528;2023-09-19T15:07:19;26.40;51.50
4578;DHT22;2301;47.354;8.528;2023-09-19T15:09:47;26.40;51.70
4578;DHT22;2301;47.354;8.528;2023-09-19T15:12:14;26.40;52.00
4578;DHT22;2301;47.354;8.528;2023-09-19T15:14:42;26.40;52.20
4578;DHT22;2301;47.354;8.528;2023-09-19T15:17:09;26.50;52.00
4578;DHT22;2301;47.354;8.528;2023-09-19T15:19:36;26.40;51.30
4578;DHT22;2301;47.354;8.528;2023-09-19T15:22:04;26.40;52.10
4578;DHT22;2301;47.354;8.528;2023-09-19T15:24:32;26.40;52.30
4578;DHT22;2301;47.354;8.528;2023-09-19T15:27:00;26.40;51.60
4578;DHT22;2301;47.354;8.528;2023-09-19T15:29:27;26.40;51.70
4578;DHT22;2301;47.354;8.528;2023-09-19T15:31:55;26.40;52.20
4578;DHT22;2301;47.354;8.528;2023-09-19T15:34:27;26.40;52.40
4578;DHT22;2301;47.354;8.528;2023-09-19T15:36:54;26.30;51.20
4578;DHT22;2301;47.354;8.528;2023-09-19T15:39:21;26.30;51.30
4578;DHT22;2301;47.354;8.528;2023-09-19T15:41:48;26.30;51.50
4578;DHT22;2301;47.354;8.528;2023-09-19T15:44:19;26.30;52.30
4578;DHT22;2301;47.354;8.528;2023-09-19T15:46:46;26.30;51.70
4578;DHT22;2301;47.354;8.528;2023-09-19T15:49:14;26.30;51.70
4578;DHT22;2301;47.354;8.528;2023-09-19T15:51:41;26.20;51.80
4578;DHT22;2301;47.354;8.528;2023-09-19T15:54:10;26.20;52.20
4578;DHT22;2301;47.354;8.528;2023-09-19T15:56:39;26.20;52.20
4578;DHT22;2301;47.354;8.528;2023-09-19T15:59:11;26.20;52.60
4578;DHT22;2301;47.354;8.528;2023-09-19T16:01:43;26.30;52.60
4578;DHT22;2301;47.354;8.528;2023-09-19T16:04:10;26.20;52.40
4578;DHT22;2301;47.354;8.528;2023-09-19T16:06:38;26.10;52.50
4578;DHT22;2301;47.354;8.528;2023-09-19T16:09:06;26.10;53.10
4578;DHT22;2301;47.354;8.528;2023-09-19T16:11:38;26.10;53.10
4578;DHT22;2301;47.354;8.528;2023-09-19T16:14:06;26.10;52.80
4578;DHT22;2301;47.354;8.528;2023-09-19T16:16:35;26.10;52.50
4578;DHT22;2301;47.354;8.528;2023-09-19T16:19:04;26.00;52.00
4578;DHT22;2301;47.354;8.528;2023-09-19T16:21:33;26.00;52.30
4578;DHT22;2301;47.354;8.528;2023-09-19T16:24:02;25.80;52.10